createdAt,value
2018-07-03T00:00:38.431Z,0
2018-07-03T00:01:18.955Z,0
2018-07-03T00:01:59.415Z,0
2018-07-03T00:02:39.860Z,0
2018-07-03T00:03:21.116Z,0
2018-07-03T00:04:02.415Z,0
2018-07-03T00:04:42.997Z,0
2018-07-03T00:05:23.475Z,0
2018-07-03T00:06:04.708Z,0
2018-07-03T00:06:45.228Z,0
2018-07-03T00:07:25.746Z,0
2018-07-03T00:08:06.807Z,0
2018-07-03T00:08:47.356Z,0
2018-07-03T00:09:27.820Z,0
2018-07-03T00:10:08.908Z,0
2018-07-03T00:10:49.404Z,0
2018-07-03T00:11:29.903Z,0
2018-07-03T00:12:10.396Z,0
2018-07-03T00:12:50.903Z,0
2018-07-03T00:13:31.362Z,0
2018-07-03T00:14:12.824Z,0
2018-07-03T00:14:53.348Z,0
2018-07-03T00:15:33.849Z,0
2018-07-03T00:16:14.354Z,0
2018-07-03T00:16:54.882Z,0
2018-07-03T00:17:36.358Z,0
2018-07-03T00:18:16.782Z,0
2018-07-03T00:18:57.292Z,0
2018-07-03T00:19:37.814Z,0
2018-07-03T00:20:18.351Z,0
2018-07-03T00:20:58.808Z,0
2018-07-03T00:21:39.286Z,0
2018-07-03T00:22:20.358Z,0
2018-07-03T00:23:00.879Z,0
2018-07-03T00:23:41.371Z,0
2018-07-03T00:24:22.612Z,0
2018-07-03T00:25:03.108Z,0
2018-07-03T00:25:43.591Z,0
2018-07-03T00:26:24.143Z,0
2018-07-03T00:27:05.473Z,0
2018-07-03T00:27:46.017Z,0
2018-07-03T00:28:26.476Z,0
2018-07-03T00:29:07.011Z,0
2018-07-03T00:29:47.459Z,0
2018-07-03T00:30:27.985Z,0
2018-07-03T00:31:08.432Z,0
2018-07-03T00:31:48.945Z,0
2018-07-03T00:32:29.468Z,0
2018-07-03T00:33:09.923Z,0
2018-07-03T00:33:50.949Z,0
2018-07-03T00:34:31.444Z,0
2018-07-03T00:35:11.952Z,0
2018-07-03T00:35:53.408Z,0
2018-07-03T00:36:33.922Z,0
2018-07-03T00:37:14.461Z,0
2018-07-03T00:39:33.594Z,0
2018-07-03T00:40:15.113Z,0
2018-07-03T00:40:55.616Z,0
2018-07-03T00:41:36.127Z,0
2018-07-03T00:42:16.647Z,0
2018-07-03T00:42:58.010Z,0
2018-07-03T00:43:38.497Z,0
2018-07-03T00:44:19.015Z,0
2018-07-03T00:44:59.525Z,0
2018-07-03T00:45:40.613Z,0
2018-07-03T00:46:21.148Z,0
2018-07-03T00:47:03.513Z,0
2018-07-03T00:47:44.004Z,0
2018-07-03T00:48:24.475Z,0
2018-07-03T00:49:05.502Z,0
2018-07-03T00:49:47.009Z,0
2018-07-03T00:50:27.510Z,0
2018-07-03T00:51:07.995Z,0
2018-07-03T00:51:48.517Z,0
2018-07-03T00:52:29.739Z,0
2018-07-03T00:53:12.090Z,0
2018-07-03T00:53:52.551Z,0
2018-07-03T00:54:33.052Z,0
2018-07-03T00:55:14.507Z,0
2018-07-03T00:55:55.013Z,0
2018-07-03T00:56:36.481Z,0
2018-07-03T00:57:16.973Z,0
2018-07-03T00:57:57.476Z,0
2018-07-03T00:58:37.971Z,0
2018-07-03T00:59:18.468Z,0
2018-07-03T00:59:58.985Z,0
2018-07-03T01:00:39.514Z,0
2018-07-03T01:01:20.694Z,0
2018-07-03T01:02:01.211Z,0
2018-07-03T01:02:42.290Z,0
2018-07-03T01:03:23.276Z,0
2018-07-03T01:04:03.808Z,0
2018-07-03T01:04:44.319Z,0
2018-07-03T01:05:24.824Z,0
2018-07-03T01:06:05.321Z,0
2018-07-03T01:06:45.825Z,0
2018-07-03T01:07:26.342Z,0
2018-07-03T01:08:07.512Z,0
2018-07-03T01:08:48.011Z,0
2018-07-03T01:09:29.102Z,0
2018-07-03T01:10:09.616Z,0
2018-07-03T01:10:51.046Z,0
2018-07-03T01:11:31.570Z,0
2018-07-03T01:12:12.736Z,0
2018-07-03T01:12:53.203Z,0
2018-07-03T01:13:34.297Z,0
2018-07-03T01:14:14.805Z,0
2018-07-03T01:14:55.267Z,0
2018-07-03T01:15:35.818Z,0
2018-07-03T01:16:17.112Z,0
2018-07-03T01:16:57.641Z,0
2018-07-03T01:17:38.110Z,0
2018-07-03T01:18:20.259Z,0
2018-07-03T01:19:00.732Z,0
2018-07-03T01:19:41.234Z,0
2018-07-03T01:20:23.715Z,0
2018-07-03T01:21:04.233Z,0
2018-07-03T01:21:44.758Z,0
2018-07-03T01:22:25.278Z,0
2018-07-03T01:23:05.770Z,0
2018-07-03T01:23:46.260Z,0
2018-07-03T01:24:26.782Z,0
2018-07-03T01:25:07.222Z,0
2018-07-03T01:25:47.717Z,0
2018-07-03T01:26:28.230Z,0
2018-07-03T01:27:08.810Z,0
2018-07-03T01:27:49.289Z,0
2018-07-03T01:28:29.777Z,0
2018-07-03T01:29:11.018Z,0
2018-07-03T01:29:51.535Z,0
2018-07-03T01:30:33.387Z,0
2018-07-03T01:31:14.564Z,0
2018-07-03T01:31:56.805Z,0
2018-07-03T01:32:37.376Z,0
2018-07-03T01:33:19.807Z,0
2018-07-03T01:34:00.369Z,0
2018-07-03T01:34:40.822Z,0
2018-07-03T01:35:21.320Z,0
2018-07-03T01:36:01.832Z,0
2018-07-03T01:36:42.282Z,0
2018-07-03T01:37:22.768Z,0
2018-07-03T01:38:03.243Z,0
2018-07-03T01:38:43.772Z,0
2018-07-03T01:39:27.210Z,0
2018-07-03T01:40:07.749Z,0
2018-07-03T01:40:49.713Z,0
2018-07-03T01:41:31.109Z,0
2018-07-03T01:42:12.142Z,0
2018-07-03T01:42:52.648Z,0
2018-07-03T01:43:33.897Z,0
2018-07-03T01:44:14.424Z,0
2018-07-03T01:44:54.928Z,0
2018-07-03T01:45:36.311Z,0
2018-07-03T01:46:16.798Z,0
2018-07-03T01:46:57.303Z,0
2018-07-03T01:47:37.800Z,0
2018-07-03T01:48:18.313Z,0
2018-07-03T01:48:59.318Z,0
2018-07-03T01:49:39.813Z,0
2018-07-03T01:50:20.346Z,0
2018-07-03T01:51:00.857Z,0
2018-07-03T01:51:41.346Z,0
2018-07-03T01:52:21.869Z,0
2018-07-03T01:53:02.376Z,0
2018-07-03T01:53:42.893Z,0
2018-07-03T01:54:23.374Z,0
2018-07-03T01:55:03.875Z,0
2018-07-03T01:55:44.422Z,0
2018-07-03T01:56:26.254Z,0
2018-07-03T01:57:06.752Z,0
2018-07-03T01:57:47.231Z,0
2018-07-03T01:58:28.438Z,0
2018-07-03T01:59:08.977Z,0
2018-07-03T01:59:50.252Z,0
2018-07-03T02:00:30.702Z,0
2018-07-03T02:01:11.214Z,0
2018-07-03T02:01:51.730Z,0
2018-07-03T02:02:32.240Z,0
2018-07-03T02:03:12.682Z,0
2018-07-03T02:03:53.198Z,0
2018-07-03T02:04:33.716Z,0
2018-07-03T02:05:14.233Z,0
2018-07-03T02:05:54.758Z,0
2018-07-03T02:06:35.285Z,0
2018-07-03T02:07:16.728Z,0
2018-07-03T02:07:59.893Z,0
2018-07-03T02:08:40.915Z,0
2018-07-03T02:09:21.451Z,0
2018-07-03T02:10:02.911Z,0
2018-07-03T02:10:44.135Z,0
2018-07-03T02:11:25.541Z,0
2018-07-03T02:12:06.042Z,0
2018-07-03T02:12:46.559Z,0
2018-07-03T02:13:27.060Z,0
2018-07-03T02:14:07.560Z,0
2018-07-03T02:14:48.094Z,0
2018-07-03T02:15:28.599Z,0
2018-07-03T02:16:09.107Z,0
2018-07-03T02:16:49.628Z,0
2018-07-03T02:17:30.143Z,0
2018-07-03T02:18:11.651Z,0
2018-07-03T02:18:53.048Z,0
2018-07-03T02:19:34.145Z,0
2018-07-03T02:20:14.645Z,0
2018-07-03T02:20:55.148Z,0
2018-07-03T02:21:35.677Z,0
2018-07-03T02:22:16.190Z,0
2018-07-03T02:22:57.401Z,0
2018-07-03T02:23:38.852Z,0
2018-07-03T02:24:19.328Z,0
2018-07-03T02:24:59.817Z,0
2018-07-03T02:25:41.150Z,0
2018-07-03T02:26:21.615Z,0
2018-07-03T02:27:02.143Z,0
2018-07-03T02:27:42.597Z,0
2018-07-03T02:28:23.092Z,0
2018-07-03T02:29:03.599Z,0
2018-07-03T02:29:44.121Z,0
2018-07-03T02:30:25.418Z,0
2018-07-03T02:31:05.976Z,0
2018-07-03T02:31:47.238Z,0
2018-07-03T02:32:27.728Z,0
2018-07-03T02:33:08.243Z,0
2018-07-03T02:33:48.758Z,0
2018-07-03T02:34:29.251Z,0
2018-07-03T02:35:09.780Z,0
2018-07-03T02:35:50.294Z,0
2018-07-03T02:36:30.748Z,0
2018-07-03T02:37:11.256Z,0
2018-07-03T02:37:51.761Z,0
2018-07-03T02:38:32.279Z,0
2018-07-03T02:39:12.834Z,0
2018-07-03T02:39:54.062Z,0
2018-07-03T02:40:34.570Z,0
2018-07-03T02:41:15.061Z,0
2018-07-03T02:41:55.604Z,0
2018-07-03T02:42:36.752Z,0
2018-07-03T02:43:17.244Z,0
2018-07-03T02:43:57.718Z,0
2018-07-03T02:44:38.227Z,0
2018-07-03T02:45:18.756Z,0
2018-07-03T02:45:59.284Z,0
2018-07-03T02:46:39.749Z,0
2018-07-03T02:47:21.037Z,0
2018-07-03T02:48:02.349Z,0
2018-07-03T02:48:42.852Z,0
2018-07-03T02:49:23.350Z,0
2018-07-03T02:50:03.856Z,0
2018-07-03T02:50:44.372Z,0
2018-07-03T02:51:24.893Z,0
2018-07-03T02:52:05.370Z,0
2018-07-03T02:52:46.854Z,0
2018-07-03T02:53:27.934Z,0
2018-07-03T02:54:09.084Z,0
2018-07-03T02:54:49.557Z,0
2018-07-03T02:55:30.074Z,0
2018-07-03T02:56:11.593Z,0
2018-07-03T02:56:52.847Z,0
2018-07-03T02:57:33.376Z,0
2018-07-03T02:58:13.885Z,0
2018-07-03T02:58:54.387Z,0
2018-07-03T02:59:34.912Z,0
2018-07-03T03:00:16.068Z,0
2018-07-03T03:00:58.251Z,0
2018-07-03T03:01:38.763Z,0
2018-07-03T03:02:19.283Z,0
2018-07-03T03:02:59.794Z,0
2018-07-03T03:03:40.294Z,0
2018-07-03T03:04:20.822Z,0
2018-07-03T03:05:01.306Z,0
2018-07-03T03:05:41.833Z,0
2018-07-03T03:06:22.354Z,0
2018-07-03T03:07:02.877Z,0
2018-07-03T03:07:43.392Z,0
2018-07-03T03:08:24.443Z,0
2018-07-03T03:09:04.943Z,0
2018-07-03T03:09:45.449Z,0
2018-07-03T03:10:25.961Z,0
2018-07-03T03:11:06.444Z,0
2018-07-03T03:11:46.962Z,0
2018-07-03T03:12:28.045Z,0
2018-07-03T03:13:08.591Z,0
2018-07-03T03:13:49.057Z,0
2018-07-03T03:14:29.584Z,0
2018-07-03T03:15:10.116Z,5
2018-07-03T03:15:50.615Z,5
2018-07-03T03:16:33.350Z,5
2018-07-03T03:17:14.829Z,5
2018-07-03T03:17:55.270Z,5
2018-07-03T03:18:35.742Z,5
2018-07-03T03:19:16.230Z,5
2018-07-03T03:19:56.701Z,5
2018-07-03T03:20:37.223Z,5
2018-07-03T03:21:17.720Z,5
2018-07-03T03:21:58.187Z,5
2018-07-03T03:22:38.668Z,10
2018-07-03T03:23:19.765Z,10
2018-07-03T03:24:00.285Z,10
2018-07-03T03:24:40.790Z,10
2018-07-03T03:25:21.306Z,10
2018-07-03T03:26:02.475Z,10
2018-07-03T03:26:42.960Z,10
2018-07-03T03:27:23.424Z,10
2018-07-03T03:28:04.451Z,10
2018-07-03T03:28:45.487Z,15
2018-07-03T03:29:25.920Z,15
2018-07-03T03:30:06.480Z,15
2018-07-03T03:30:46.968Z,15
2018-07-03T03:31:27.493Z,15
2018-07-03T03:32:08.625Z,15
2018-07-03T03:32:49.088Z,15
2018-07-03T03:33:29.616Z,15
2018-07-03T03:34:11.897Z,15
2018-07-03T03:34:52.950Z,20
2018-07-03T03:35:33.698Z,20
2018-07-03T03:36:14.835Z,20
2018-07-03T03:36:55.330Z,20
2018-07-03T03:37:36.468Z,20
2018-07-03T03:38:16.954Z,25
2018-07-03T03:38:57.457Z,25
2018-07-03T03:39:37.938Z,25
2018-07-03T03:40:18.436Z,25
2018-07-03T03:40:58.924Z,25
2018-07-03T03:41:39.440Z,30
2018-07-03T03:42:20.462Z,30
2018-07-03T03:43:00.978Z,30
2018-07-03T03:43:42.321Z,30
2018-07-03T03:44:23.455Z,30
2018-07-03T03:45:04.731Z,30
2018-07-03T03:45:45.243Z,35
2018-07-03T03:46:25.701Z,35
2018-07-03T03:47:06.242Z,35
2018-07-03T03:47:46.736Z,35
2018-07-03T03:48:27.216Z,35
2018-07-03T03:49:07.700Z,35
2018-07-03T03:49:48.197Z,35
2018-07-03T03:50:30.084Z,35
2018-07-03T03:51:11.292Z,35
2018-07-03T03:51:51.834Z,40
2018-07-03T03:52:35.316Z,40
2018-07-03T03:53:15.835Z,40
2018-07-03T03:53:56.328Z,40
2018-07-03T03:54:36.786Z,45
2018-07-03T03:55:17.299Z,45
2018-07-03T03:55:57.775Z,45
2018-07-03T03:56:38.260Z,45
2018-07-03T03:57:19.020Z,45
2018-07-03T03:58:00.154Z,50
2018-07-03T03:58:41.210Z,50
2018-07-03T03:59:22.132Z,50
2018-07-03T04:00:02.656Z,50
2018-07-03T04:00:43.089Z,55
2018-07-03T04:01:25.797Z,55
2018-07-03T04:02:06.346Z,55
2018-07-03T04:02:47.402Z,55
2018-07-03T04:03:28.722Z,60
2018-07-03T04:04:09.213Z,60
2018-07-03T04:04:49.798Z,60
2018-07-03T04:05:30.307Z,60
2018-07-03T04:06:10.762Z,65
2018-07-03T04:06:52.785Z,65
2018-07-03T04:07:33.754Z,65
2018-07-03T04:08:14.116Z,70
2018-07-03T04:08:55.150Z,70
2018-07-03T04:09:35.640Z,70
2018-07-03T04:10:16.154Z,75
2018-07-03T04:10:58.323Z,75
2018-07-03T04:11:38.776Z,90
2018-07-03T04:12:21.217Z,110
2018-07-03T04:13:00.802Z,105
2018-07-03T04:13:41.295Z,90
2018-07-03T04:14:21.796Z,80
2018-07-03T04:15:02.308Z,80
2018-07-03T04:15:43.385Z,80
2018-07-03T04:16:23.909Z,80
2018-07-03T04:17:04.388Z,80
2018-07-03T04:17:44.867Z,85
2018-07-03T04:18:25.405Z,85
2018-07-03T04:19:05.869Z,85
2018-07-03T04:19:46.324Z,85
2018-07-03T04:20:26.881Z,85
2018-07-03T04:21:07.346Z,90
2018-07-03T04:21:47.857Z,90
2018-07-03T04:22:28.373Z,90
2018-07-03T04:23:08.854Z,90
2018-07-03T04:23:50.012Z,90
2018-07-03T04:24:30.469Z,85
2018-07-03T04:25:10.993Z,90
2018-07-03T04:25:52.019Z,85
2018-07-03T04:26:33.819Z,85
2018-07-03T04:27:14.335Z,85
2018-07-03T04:27:54.810Z,85
2018-07-03T04:28:35.348Z,90
2018-07-03T04:29:16.760Z,90
2018-07-03T04:29:57.238Z,90
2018-07-03T04:30:37.752Z,90
2018-07-03T04:31:18.267Z,90
2018-07-03T04:31:58.781Z,95
2018-07-03T04:32:39.270Z,95
2018-07-03T04:33:19.807Z,90
2018-07-03T04:34:00.399Z,90
2018-07-03T04:34:41.520Z,90
2018-07-03T04:35:22.818Z,85
2018-07-03T04:36:03.394Z,90
2018-07-03T04:36:43.866Z,90
2018-07-03T04:37:24.383Z,90
2018-07-03T04:38:04.898Z,90
2018-07-03T04:38:45.360Z,90
2018-07-03T04:39:26.850Z,95
2018-07-03T04:40:07.300Z,100
2018-07-03T04:40:48.701Z,100
2018-07-03T04:41:32.805Z,110
2018-07-03T04:42:13.323Z,110
2018-07-03T04:42:53.817Z,115
2018-07-03T04:43:34.309Z,135
2018-07-03T04:44:14.853Z,140
2018-07-03T04:44:55.365Z,285
2018-07-03T04:45:36.470Z,235
2018-07-03T04:46:16.961Z,425
2018-07-03T04:46:57.504Z,200
2018-07-03T04:47:37.926Z,325
2018-07-03T04:48:18.428Z,135
2018-07-03T04:48:58.973Z,130
2018-07-03T04:49:39.494Z,135
2018-07-03T04:50:20.494Z,150
2018-07-03T04:51:01.015Z,140
2018-07-03T04:51:42.406Z,130
2018-07-03T04:52:22.954Z,120
2018-07-03T04:53:03.450Z,120
2018-07-03T04:53:43.950Z,120
2018-07-03T04:54:24.435Z,120
2018-07-03T04:55:04.975Z,155
2018-07-03T04:55:45.465Z,135
2018-07-03T04:56:26.485Z,185
2018-07-03T04:57:07.004Z,170
2018-07-03T04:57:47.472Z,165
2018-07-03T04:58:27.996Z,215
2018-07-03T04:59:08.477Z,205
2018-07-03T04:59:48.919Z,165
2018-07-03T05:00:29.397Z,165
2018-07-03T05:01:09.934Z,130
2018-07-03T05:01:50.429Z,130
2018-07-03T05:02:30.981Z,135
2018-07-03T05:03:11.463Z,130
2018-07-03T05:03:51.963Z,165
2018-07-03T05:04:32.447Z,135
2018-07-03T05:05:14.821Z,120
2018-07-03T05:05:55.327Z,130
2018-07-03T05:06:35.853Z,125
2018-07-03T05:07:16.528Z,120
2018-07-03T05:07:57.070Z,125
2018-07-03T05:08:37.609Z,120
2018-07-03T05:09:18.058Z,145
2018-07-03T05:09:58.559Z,125
2018-07-03T05:10:39.065Z,125
2018-07-03T05:11:19.577Z,120
2018-07-03T05:12:00.669Z,120
2018-07-03T05:12:41.175Z,120
2018-07-03T05:13:21.663Z,130
2018-07-03T05:14:02.171Z,130
2018-07-03T05:14:42.649Z,135
2018-07-03T05:15:23.179Z,140
2018-07-03T05:16:03.685Z,140
2018-07-03T05:16:44.837Z,125
2018-07-03T05:17:25.394Z,130
2018-07-03T05:18:05.841Z,140
2018-07-03T05:18:47.027Z,300
2018-07-03T05:19:28.420Z,345
2018-07-03T05:20:09.773Z,320
2018-07-03T05:20:50.243Z,325
2018-07-03T05:21:31.207Z,155
2018-07-03T05:22:11.752Z,140
2018-07-03T05:22:52.223Z,140
2018-07-03T05:23:32.864Z,145
2018-07-03T05:24:13.413Z,140
2018-07-03T05:24:54.172Z,145
2018-07-03T05:25:34.633Z,180
2018-07-03T05:26:15.084Z,325
2018-07-03T05:26:55.655Z,435
2018-07-03T05:27:36.237Z,475
2018-07-03T05:28:16.718Z,185
2018-07-03T05:28:57.216Z,155
2018-07-03T05:29:37.703Z,165
2018-07-03T05:30:19.154Z,165
2018-07-03T05:30:59.615Z,145
2018-07-03T05:31:40.194Z,140
2018-07-03T05:32:20.644Z,150
2018-07-03T05:33:01.102Z,145
2018-07-03T05:33:41.634Z,145
2018-07-03T05:34:22.128Z,150
2018-07-03T05:35:02.635Z,150
2018-07-03T05:35:43.140Z,155
2018-07-03T05:36:23.658Z,160
2018-07-03T05:37:04.142Z,155
2018-07-03T05:37:44.615Z,155
2018-07-03T05:38:25.742Z,150
2018-07-03T05:39:06.216Z,145
2018-07-03T05:39:46.735Z,140
2018-07-03T05:40:27.237Z,140
2018-07-03T05:41:07.729Z,140
2018-07-03T05:41:49.203Z,140
2018-07-03T05:44:28.643Z,140
2018-07-03T05:45:10.682Z,140
2018-07-03T05:45:51.199Z,145
2018-07-03T05:46:31.730Z,145
2018-07-03T05:47:13.007Z,145
2018-07-03T05:47:53.561Z,145
2018-07-03T05:48:34.065Z,145
2018-07-03T05:49:14.559Z,145
2018-07-03T05:49:55.111Z,145
2018-07-03T05:50:35.584Z,145
2018-07-03T05:51:16.159Z,150
2018-07-03T05:51:56.692Z,155
2018-07-03T05:52:37.221Z,150
2018-07-03T05:53:17.668Z,155
2018-07-03T05:53:58.333Z,150
2018-07-03T05:54:38.908Z,155
2018-07-03T05:55:19.454Z,155
2018-07-03T05:55:59.991Z,165
2018-07-03T05:56:40.425Z,200
2018-07-03T05:57:20.976Z,205
2018-07-03T05:58:02.244Z,205
2018-07-03T05:58:42.727Z,165
2018-07-03T05:59:23.220Z,190
2018-07-03T06:00:04.556Z,205
2018-07-03T06:00:45.069Z,305
2018-07-03T06:01:26.530Z,240
2018-07-03T06:02:07.013Z,265
2018-07-03T06:02:47.520Z,310
2018-07-03T06:03:28.046Z,310
2018-07-03T06:04:08.564Z,305
2018-07-03T06:04:48.994Z,310
2018-07-03T06:05:29.749Z,305
2018-07-03T06:06:10.253Z,300
2018-07-03T06:06:50.728Z,290
2018-07-03T06:07:31.220Z,285
2018-07-03T06:08:11.714Z,275
2018-07-03T06:08:52.268Z,275
2018-07-03T06:09:33.566Z,275
2018-07-03T06:10:14.605Z,275
2018-07-03T06:10:55.110Z,275
2018-07-03T06:11:36.616Z,275
2018-07-03T06:12:17.129Z,275
2018-07-03T06:12:57.685Z,275
2018-07-03T06:13:38.159Z,280
2018-07-03T06:14:18.707Z,275
2018-07-03T06:14:59.324Z,270
2018-07-03T06:15:40.562Z,270
2018-07-03T06:16:21.088Z,270
2018-07-03T06:17:01.593Z,275
2018-07-03T06:17:42.119Z,275
2018-07-03T06:18:22.589Z,275
2018-07-03T06:19:03.219Z,275
2018-07-03T06:19:43.726Z,275
2018-07-03T06:20:25.216Z,275
2018-07-03T06:21:06.590Z,275
2018-07-03T06:21:48.768Z,275
2018-07-03T06:22:29.243Z,275
2018-07-03T06:23:09.727Z,275
2018-07-03T06:23:50.221Z,275
2018-07-03T06:24:31.649Z,275
2018-07-03T06:25:12.199Z,275
2018-07-03T06:25:53.236Z,275
2018-07-03T06:26:33.744Z,275
2018-07-03T06:27:14.231Z,275
2018-07-03T06:27:54.766Z,275
2018-07-03T06:28:35.346Z,275
2018-07-03T06:29:15.819Z,275
2018-07-03T06:29:56.356Z,275
2018-07-03T06:30:36.985Z,275
2018-07-03T06:31:18.042Z,275
2018-07-03T06:31:58.430Z,275
2018-07-03T06:32:39.009Z,275
2018-07-03T06:33:19.527Z,275
2018-07-03T06:34:00.041Z,280
2018-07-03T06:34:40.516Z,270
2018-07-03T06:35:21.145Z,270
2018-07-03T06:36:03.069Z,270
2018-07-03T06:36:44.533Z,270
2018-07-03T06:37:26.131Z,270
2018-07-03T06:38:06.452Z,270
2018-07-03T06:38:46.965Z,270
2018-07-03T06:39:29.048Z,270
2018-07-03T06:40:09.533Z,270
2018-07-03T06:40:50.060Z,270
2018-07-03T06:41:30.758Z,265
2018-07-03T06:42:11.639Z,265
2018-07-03T06:42:52.254Z,265
2018-07-03T06:43:32.767Z,265
2018-07-03T06:44:14.765Z,265
2018-07-03T06:44:55.312Z,265
2018-07-03T06:45:35.792Z,265
2018-07-03T06:46:17.218Z,265
2018-07-03T06:46:57.737Z,265
2018-07-03T06:47:38.180Z,265
2018-07-03T06:48:18.730Z,265
2018-07-03T06:49:00.122Z,260
2018-07-03T06:49:41.151Z,260
2018-07-03T06:50:21.668Z,260
2018-07-03T06:51:02.145Z,260
2018-07-03T06:51:42.728Z,260
2018-07-03T06:52:23.190Z,260
2018-07-03T06:53:03.702Z,260
2018-07-03T06:53:44.870Z,255
2018-07-03T06:54:25.389Z,255
2018-07-03T06:55:05.851Z,255
2018-07-03T06:55:47.096Z,255
2018-07-03T06:56:27.568Z,255
2018-07-03T06:57:09.684Z,255
2018-07-03T06:57:50.192Z,255
2018-07-03T06:58:30.637Z,255
2018-07-03T06:59:11.156Z,255
2018-07-03T06:59:52.179Z,255
2018-07-03T07:00:32.653Z,250
2018-07-03T07:01:13.842Z,250
2018-07-03T07:01:55.083Z,250
2018-07-03T07:02:35.562Z,250
2018-07-03T07:03:16.120Z,250
2018-07-03T07:03:56.617Z,250
2018-07-03T07:04:38.017Z,250
2018-07-03T07:05:18.575Z,250
2018-07-03T07:06:00.569Z,250
2018-07-03T07:06:42.662Z,250
2018-07-03T07:07:23.223Z,245
2018-07-03T07:08:03.681Z,245
2018-07-03T07:08:44.298Z,245
2018-07-03T07:09:25.489Z,245
2018-07-03T07:10:05.999Z,245
2018-07-03T07:10:47.551Z,245
2018-07-03T07:11:28.048Z,245
2018-07-03T07:12:08.575Z,245
2018-07-03T07:12:49.050Z,250
2018-07-03T07:13:30.512Z,240
2018-07-03T07:14:10.988Z,240
2018-07-03T07:14:51.517Z,240
2018-07-03T07:15:32.049Z,240
2018-07-03T07:16:12.593Z,240
2018-07-03T07:16:53.051Z,240
2018-07-03T07:17:33.506Z,240
2018-07-03T07:18:14.003Z,235
2018-07-03T07:18:54.556Z,235
2018-07-03T07:19:35.911Z,235
2018-07-03T07:20:16.349Z,235
2018-07-03T07:20:56.969Z,235
2018-07-03T07:21:38.091Z,235
2018-07-03T07:22:20.101Z,235
2018-07-03T07:23:00.590Z,235
2018-07-03T07:23:41.052Z,235
2018-07-03T07:24:21.573Z,235
2018-07-03T07:25:02.023Z,235
2018-07-03T07:25:42.588Z,235
2018-07-03T07:26:23.115Z,235
2018-07-03T07:27:03.597Z,235
2018-07-03T07:27:44.115Z,230
2018-07-03T07:28:25.230Z,230
2018-07-03T07:29:05.766Z,230
2018-07-03T07:29:46.327Z,230
2018-07-03T07:30:27.471Z,230
2018-07-03T07:31:07.989Z,225
2018-07-03T07:31:48.502Z,225
2018-07-03T07:32:29.007Z,225
2018-07-03T07:33:09.505Z,225
2018-07-03T07:33:50.017Z,225
2018-07-03T07:34:31.072Z,225
2018-07-03T07:35:11.543Z,225
2018-07-03T07:35:52.073Z,220
2018-07-03T07:36:32.601Z,220
2018-07-03T07:37:13.202Z,220
2018-07-03T07:37:53.658Z,220
2018-07-03T07:38:34.149Z,220
2018-07-03T07:39:14.665Z,220
2018-07-03T07:39:55.189Z,220
2018-07-03T07:40:35.693Z,220
2018-07-03T07:41:16.152Z,215
2018-07-03T07:41:56.631Z,215
2018-07-03T07:42:37.188Z,215
2018-07-03T07:43:17.641Z,215
2018-07-03T07:43:58.148Z,215
2018-07-03T07:44:38.671Z,215
2018-07-03T07:45:19.146Z,210
2018-07-03T07:46:00.631Z,210
2018-07-03T07:46:41.098Z,210
2018-07-03T07:47:21.624Z,210
2018-07-03T07:48:02.133Z,210
2018-07-03T07:48:42.582Z,210
2018-07-03T07:49:23.106Z,210
2018-07-03T07:50:03.575Z,210
2018-07-03T07:50:44.203Z,205
2018-07-03T07:51:25.664Z,205
2018-07-03T07:52:06.197Z,205
2018-07-03T07:52:46.742Z,205
2018-07-03T07:53:27.254Z,205
2018-07-03T07:54:07.722Z,205
2018-07-03T07:54:49.111Z,205
2018-07-03T07:55:29.584Z,200
2018-07-03T07:56:10.651Z,200
2018-07-03T07:56:51.184Z,200
2018-07-03T07:57:31.647Z,200
2018-07-03T07:58:12.168Z,200
2018-07-03T07:58:52.673Z,200
2018-07-03T07:59:33.160Z,195
2018-07-03T08:00:13.685Z,195
2018-07-03T08:00:54.855Z,195
2018-07-03T08:01:35.407Z,195
2018-07-03T08:02:16.399Z,195
2018-07-03T08:02:56.892Z,195
2018-07-03T08:03:37.409Z,195
2018-07-03T08:04:17.904Z,190
2018-07-03T08:04:59.004Z,190
2018-07-03T08:05:39.531Z,190
2018-07-03T08:06:20.032Z,190
2018-07-03T08:07:00.546Z,190
2018-07-03T08:07:41.748Z,190
2018-07-03T08:08:24.196Z,190
2018-07-03T08:09:05.431Z,185
2018-07-03T08:09:45.920Z,185
2018-07-03T08:10:26.883Z,185
2018-07-03T08:11:08.258Z,185
2018-07-03T08:11:48.753Z,185
2018-07-03T08:12:29.269Z,185
2018-07-03T08:13:09.841Z,185
2018-07-03T08:13:50.334Z,185
2018-07-03T08:14:31.787Z,185
2018-07-03T08:15:12.297Z,185
2018-07-03T08:15:53.470Z,185
2018-07-03T08:16:33.988Z,185
2018-07-03T08:17:15.384Z,180
2018-07-03T08:17:55.878Z,180
2018-07-03T08:18:37.299Z,180
2018-07-03T08:19:17.774Z,180
2018-07-03T08:19:58.909Z,180
2018-07-03T08:20:40.182Z,185
2018-07-03T08:21:20.694Z,175
2018-07-03T08:22:01.982Z,175
2018-07-03T08:22:42.516Z,175
2018-07-03T08:23:22.997Z,175
2018-07-03T08:24:03.554Z,175
2018-07-03T08:24:44.680Z,175
2018-07-03T08:25:25.192Z,170
2018-07-03T08:26:05.730Z,170
2018-07-03T08:26:46.229Z,170
2018-07-03T08:27:26.767Z,170
2018-07-03T08:28:07.288Z,170
2018-07-03T08:28:47.763Z,165
2018-07-03T08:29:28.269Z,165
2018-07-03T08:30:09.319Z,165
2018-07-03T08:30:49.793Z,160
2018-07-03T08:31:32.224Z,155
2018-07-03T08:32:12.715Z,155
2018-07-03T08:32:53.184Z,150
2018-07-03T08:33:33.711Z,145
2018-07-03T08:34:14.266Z,145
2018-07-03T08:34:54.747Z,140
2018-07-03T08:35:35.935Z,140
2018-07-03T08:36:16.460Z,140
2018-07-03T08:36:57.041Z,140
2018-07-03T08:37:38.191Z,140
2018-07-03T08:38:18.725Z,140
2018-07-03T08:38:59.174Z,140
2018-07-03T08:39:39.905Z,135
2018-07-03T08:40:20.430Z,135
2018-07-03T08:41:00.884Z,135
2018-07-03T08:41:42.105Z,135
2018-07-03T08:42:22.648Z,135
2018-07-03T08:43:03.116Z,135
2018-07-03T08:43:43.602Z,135
2018-07-03T08:44:24.137Z,135
2018-07-03T08:45:04.642Z,135
2018-07-03T08:45:45.806Z,135
2018-07-03T08:46:26.339Z,135
2018-07-03T08:47:06.837Z,135
2018-07-03T08:47:47.320Z,135
2018-07-03T08:48:27.845Z,135
2018-07-03T08:49:08.327Z,135
2018-07-03T08:49:48.845Z,135
2018-07-03T08:50:29.340Z,135
2018-07-03T08:51:09.842Z,135
2018-07-03T08:51:50.569Z,135
2018-07-03T08:52:30.842Z,135
2018-07-03T08:53:11.329Z,135
2018-07-03T08:53:51.858Z,135
2018-07-03T08:54:32.954Z,130
2018-07-03T08:55:14.295Z,130
2018-07-03T08:55:54.783Z,130
2018-07-03T08:56:35.299Z,130
2018-07-03T08:57:15.858Z,130
2018-07-03T08:57:56.939Z,130
2018-07-03T08:58:37.468Z,130
2018-07-03T08:59:17.974Z,130
2018-07-03T08:59:58.479Z,130
2018-07-03T09:00:39.556Z,130
2018-07-03T09:01:20.090Z,130
2018-07-03T09:02:00.557Z,130
2018-07-03T09:02:41.098Z,130
2018-07-03T09:03:21.577Z,125
2018-07-03T09:04:02.063Z,125
2018-07-03T09:04:43.439Z,125
2018-07-03T09:05:24.074Z,125
2018-07-03T09:06:04.562Z,125
2018-07-03T09:06:45.709Z,125
2018-07-03T09:07:26.219Z,125
2018-07-03T09:08:06.697Z,125
2018-07-03T09:08:47.164Z,125
2018-07-03T09:09:27.672Z,125
2018-07-03T09:10:08.178Z,125
2018-07-03T09:10:48.729Z,125
2018-07-03T09:11:29.265Z,125
2018-07-03T09:12:09.781Z,125
2018-07-03T09:12:51.193Z,125
2018-07-03T09:13:31.735Z,125
2018-07-03T09:14:13.719Z,125
2018-07-03T09:14:55.835Z,125
2018-07-03T09:15:37.237Z,125
2018-07-03T09:16:17.728Z,130
2018-07-03T09:16:58.235Z,125
2018-07-03T09:17:38.743Z,130
2018-07-03T09:18:19.203Z,130
2018-07-03T09:18:59.769Z,125
2018-07-03T09:19:40.307Z,130
2018-07-03T09:20:20.777Z,125
2018-07-03T09:21:01.291Z,130
2018-07-03T09:21:41.815Z,125
2018-07-03T09:22:22.333Z,125
2018-07-03T09:23:02.814Z,125
2018-07-03T09:23:43.345Z,125
2018-07-03T09:24:23.782Z,125
2018-07-03T09:25:05.301Z,125
2018-07-03T09:25:45.811Z,125
2018-07-03T09:26:26.302Z,125
2018-07-03T09:27:06.875Z,125
2018-07-03T09:27:47.349Z,125
2018-07-03T09:28:27.860Z,125
2018-07-03T09:29:08.385Z,125
2018-07-03T09:29:48.885Z,125
2018-07-03T09:30:30.195Z,125
2018-07-03T09:31:10.676Z,125
2018-07-03T09:31:51.808Z,125
2018-07-03T09:32:32.318Z,125
2018-07-03T09:33:12.798Z,125
2018-07-03T09:33:53.320Z,125
2018-07-03T09:34:33.838Z,125
2018-07-03T09:35:14.288Z,125
2018-07-03T09:35:54.820Z,125
2018-07-03T09:36:36.047Z,120
2018-07-03T09:37:16.513Z,120
2018-07-03T09:37:57.036Z,120
2018-07-03T09:38:37.496Z,120
2018-07-03T09:39:17.988Z,120
2018-07-03T09:39:58.483Z,120
2018-07-03T09:40:38.986Z,120
2018-07-03T09:41:19.442Z,120